KSGU

Details ICAO KSGU (SGU)
Name [X] St George Muni
Region United States
Timezone America/Denver (UTC-7.0)
Plans Departing 29
Arriving 33
Stats Elevation 2,941 ft / 896 m (AMSL)
Location 37.090590° -113.593075°
Runways 1
Magnetic Variation 11.386° E
Sunrise 2017-12-11 14:39:28 UTC / 2017-12-11 07:39:28 Local
Sunset 2017-12-12 00:18:59 UTC / 2017-12-11 17:18:59 Local
Advertisement - Login to hide

Runways

ID Width Length Bearing (true) Bearing (mag) Surface Threshold Offset Overrun Length
16 98 ft / 30 m 6,612 ft / 2,015 m 180.21° 168.82° Asphalt 194 ft / 59 m 151 ft / 46 m
34 98 ft / 30 m 6,612 ft / 2,015 m 0.21° 348.82° Asphalt 0 ft / 0 m 0 ft / 0 m

Map

Weather


0- 5 10 15 20 25 30 35+ Temperature / ° C

Clouds and Precipitation
Forecast for 2017-12-12 00:00 UTC. Updated 2 hours ago

Ground ~20,000 ft ~40,000 ft Winds

METAR

KSGU 112056Z AUTO 00000KT 10SM CLR 11/M15 A3041 RMK AO2 SLP301 T01061150 58031

TAF

KSGU 111742Z 1118/1218 VRB05KT P6SM SKC
Warning: Do not use this data for real-world aviation or navigation. No guarantee of current accuracy is given.